Parsonsburg, Maryland
Current Conditions -  °F | °C
As of 5:22 AM on Wednesday 26 Nov 2014 (Local Time) from KSBY Reporting Station
Moderate Rain Moderate Rain  
Wind Chill: 41°   Ceiling: 800
Heat Index: 46°   Visibility: 3mi
Dew Point: 42°   Wind: 10mph
Humidity: 86%   Direction: 30°NNE
Pressure: 30.06"   Gusts: NA
Location:  38.39°N, 75.47°W
Report Text: KSBY 261022Z AUTO 03009KT 3SM RA BR BKN008 BKN013 OVC055 08/06 A3006 RMK AO2 CIG 005V010 P0003 T00780056 $
Loading
Personal Weather Stations






























Interactive Weather Map New forecast layout! Learn more

10-Day Weather Forecast

Advertisements
Track Severe Weather on mobile